createdAt,value
2017-12-30T00:00:24.103Z,8.17
2017-12-30T00:02:53.866Z,11.83
2017-12-30T00:05:22.177Z,13.87
2017-12-30T00:07:50.488Z,8.70
2017-12-30T00:10:19.982Z,16.50
2017-12-30T00:12:49.098Z,16.70
2017-12-30T00:15:17.367Z,17.17
2017-12-30T00:17:45.647Z,9.43
2017-12-30T00:20:14.744Z,11.53
2017-12-30T00:22:43.021Z,10.47
2017-12-30T00:25:12.047Z,8.87
2017-12-30T00:27:41.178Z,19.90
2017-12-30T00:30:10.607Z,8.27
2017-12-30T00:32:39.174Z,8.03
2017-12-30T00:35:08.614Z,8.93
2017-12-30T00:37:38.043Z,11.07
2017-12-30T00:40:06.388Z,9.00
2017-12-30T00:42:34.738Z,13.53
2017-12-30T00:45:03.034Z,6.23
2017-12-30T00:47:31.904Z,8.67
2017-12-30T00:50:00.246Z,6.90
2017-12-30T00:52:29.289Z,9.43
2017-12-30T00:54:58.815Z,16.20
2017-12-30T00:57:27.186Z,7.17
2017-12-30T01:00:45.858Z,9.37
2017-12-30T01:03:14.215Z,10.30
2017-12-30T01:05:43.814Z,9.37
2017-12-30T01:08:13.058Z,7.83
2017-12-30T01:10:41.349Z,12.73
2017-12-30T01:13:09.576Z,10.93
2017-12-30T01:15:37.831Z,8.73
2017-12-30T01:18:07.485Z,7.60
2017-12-30T01:20:36.348Z,9.93
2017-12-30T01:23:04.575Z,14.80
2017-12-30T01:25:33.651Z,11.00
2017-12-30T01:28:01.903Z,11.87
2017-12-30T01:30:30.149Z,10.50
2017-12-30T01:32:58.454Z,8.83
2017-12-30T01:35:26.729Z,8.87
2017-12-30T01:37:55.092Z,10.07
2017-12-30T01:40:23.369Z,9.10
2017-12-30T01:42:52.360Z,10.67
2017-12-30T01:45:20.642Z,18.50
2017-12-30T01:47:48.936Z,20.80
2017-12-30T01:50:17.924Z,9.43
2017-12-30T01:52:47.665Z,11.93
2017-12-30T01:55:17.180Z,20.07
2017-12-30T01:57:46.915Z,12.00
2017-12-30T02:00:15.160Z,13.00
2017-12-30T02:02:43.432Z,13.83
2017-12-30T02:05:12.491Z,12.73
2017-12-30T02:07:41.580Z,13.30
2017-12-30T02:10:09.864Z,15.87
2017-12-30T02:12:38.097Z,10.43
2017-12-30T02:15:06.361Z,16.87
2017-12-30T02:17:34.632Z,12.33
2017-12-30T02:20:02.877Z,12.97
2017-12-30T02:22:31.117Z,10.63
2017-12-30T02:24:59.424Z,16.07
2017-12-30T02:27:29.039Z,17.33
2017-12-30T02:29:58.322Z,14.90
2017-12-30T02:32:27.869Z,22.80
2017-12-30T02:34:57.114Z,16.33
2017-12-30T02:37:26.723Z,16.93
2017-12-30T02:39:54.882Z,15.73
2017-12-30T02:42:23.108Z,8.93
2017-12-30T02:44:51.332Z,20.23
2017-12-30T02:47:20.976Z,9.20
2017-12-30T02:49:49.481Z,15.00
2017-12-30T02:52:18.477Z,10.40
2017-12-30T02:54:46.821Z,15.03
2017-12-30T02:57:16.442Z,19.80
2017-12-30T02:59:44.700Z,10.97
2017-12-30T03:02:13.005Z,15.23
2017-12-30T03:04:42.037Z,15.03
2017-12-30T03:07:10.268Z,23.67
2017-12-30T03:09:40.060Z,17.17
2017-12-30T03:12:08.300Z,13.03
2017-12-30T03:14:37.897Z,13.80
2017-12-30T03:17:06.437Z,13.33
2017-12-30T03:19:35.437Z,23.27
2017-12-30T03:22:03.673Z,6.77
2017-12-30T03:24:33.097Z,14.70
2017-12-30T03:27:02.099Z,17.23
2017-12-30T03:29:31.139Z,10.77
2017-12-30T03:32:00.208Z,14.10
2017-12-30T03:34:28.456Z,17.03
2017-12-30T03:36:58.059Z,17.80
2017-12-30T03:39:26.236Z,11.57
2017-12-30T03:41:54.505Z,13.00
2017-12-30T03:44:23.160Z,13.90
2017-12-30T03:46:51.432Z,17.33
2017-12-30T03:49:21.169Z,14.47
2017-12-30T03:51:50.168Z,7.67
2017-12-30T03:54:18.444Z,11.10
2017-12-30T03:56:47.449Z,16.67
2017-12-30T03:59:16.463Z,14.40
2017-12-30T04:01:44.729Z,14.03
2017-12-30T04:04:12.957Z,12.27
2017-12-30T04:06:41.199Z,18.27
2017-12-30T04:09:09.465Z,16.57
2017-12-30T04:11:37.696Z,13.77
2017-12-30T04:14:07.279Z,17.40
2017-12-30T04:16:35.440Z,13.93
2017-12-30T04:19:03.673Z,20.93
2017-12-30T04:21:31.905Z,11.93
2017-12-30T04:24:00.602Z,19.30
2017-12-30T04:26:28.834Z,8.27
2017-12-30T04:28:57.889Z,11.67
2017-12-30T04:31:26.187Z,10.27
2017-12-30T04:33:55.237Z,19.53
2017-12-30T04:36:24.234Z,10.50
2017-12-30T04:38:52.500Z,13.77
2017-12-30T04:41:21.496Z,21.50
2017-12-30T04:43:49.728Z,23.37
2017-12-30T04:46:19.351Z,26.20
2017-12-30T04:48:48.595Z,20.17
2017-12-30T04:51:16.851Z,12.40
2017-12-30T04:53:45.136Z,25.10
2017-12-30T04:56:13.365Z,25.60
2017-12-30T04:58:41.596Z,15.10
2017-12-30T05:01:09.864Z,17.10
2017-12-30T05:03:38.092Z,23.57
2017-12-30T05:06:06.343Z,14.70
2017-12-30T05:08:34.623Z,11.40
2017-12-30T05:11:02.848Z,12.57
2017-12-30T05:13:33.212Z,13.53
2017-12-30T05:16:01.873Z,12.70
2017-12-30T05:18:30.127Z,19.20
2017-12-30T05:20:58.373Z,20.07
2017-12-30T05:23:28.154Z,20.53
2017-12-30T05:25:56.407Z,7.73
2017-12-30T05:28:24.644Z,16.33
2017-12-30T05:30:52.924Z,14.30
2017-12-30T05:33:21.171Z,13.47
2017-12-30T05:35:49.400Z,21.73
2017-12-30T05:38:17.699Z,27.30
2017-12-30T05:40:45.944Z,17.53
2017-12-30T05:43:14.196Z,18.90
2017-12-30T05:45:43.825Z,25.60
2017-12-30T05:48:11.955Z,25.00
2017-12-30T05:50:40.200Z,22.57
2017-12-30T05:53:08.464Z,16.63
2017-12-30T05:55:36.696Z,22.30
2017-12-30T05:58:04.939Z,18.10
2017-12-30T06:00:33.984Z,19.57
2017-12-30T06:03:02.236Z,20.63
2017-12-30T06:05:30.490Z,19.37
2017-12-30T06:07:58.829Z,40.07
2017-12-30T06:10:27.473Z,54.10
2017-12-30T06:12:56.488Z,18.90
2017-12-30T06:15:25.545Z,37.50
2017-12-30T06:17:53.804Z,52.00
2017-12-30T06:20:23.160Z,72.90
2017-12-30T06:22:51.428Z,46.80
2017-12-30T06:25:21.012Z,36.37
2017-12-30T06:27:49.883Z,38.27
2017-12-30T06:30:19.303Z,36.67
2017-12-30T06:32:48.307Z,48.37
2017-12-30T06:35:16.569Z,52.33
2017-12-30T06:37:45.630Z,38.90
2017-12-30T06:40:13.878Z,70.00
2017-12-30T06:42:42.123Z,39.40
2017-12-30T06:45:10.448Z,63.17
2017-12-30T06:47:38.684Z,62.10
2017-12-30T06:50:06.916Z,60.20
2017-12-30T06:52:35.183Z,57.77
2017-12-30T06:55:03.433Z,50.40
2017-12-30T06:57:31.664Z,51.07
2017-12-30T07:00:00.725Z,52.13
2017-12-30T07:02:28.969Z,60.90
2017-12-30T07:04:57.622Z,54.50
2017-12-30T07:07:27.071Z,63.53
2017-12-30T07:09:55.713Z,52.07
2017-12-30T07:12:23.956Z,51.07
2017-12-30T07:14:52.227Z,54.13
2017-12-30T07:17:21.243Z,52.23
2017-12-30T07:19:49.488Z,72.63
2017-12-30T07:22:17.795Z,80.60
2017-12-30T07:24:46.805Z,36.00
2017-12-30T07:27:15.812Z,50.27
2017-12-30T07:29:44.094Z,117.23
2017-12-30T07:32:13.865Z,57.80
2017-12-30T07:34:42.096Z,42.50
2017-12-30T07:37:10.371Z,37.63
2017-12-30T07:39:39.368Z,47.47
2017-12-30T07:42:07.640Z,31.23
2017-12-30T07:44:37.291Z,34.30
2017-12-30T07:47:05.401Z,54.73
2017-12-30T07:49:33.648Z,65.03
2017-12-30T07:52:01.925Z,41.93
2017-12-30T07:54:30.190Z,44.33
2017-12-30T07:56:59.197Z,77.47
2017-12-30T07:59:27.526Z,72.50
2017-12-30T08:01:55.760Z,77.03
2017-12-30T08:04:24.000Z,43.90
2017-12-30T08:06:53.412Z,69.90
2017-12-30T08:09:21.644Z,40.67
2017-12-30T08:11:50.667Z,65.87
2017-12-30T08:14:19.701Z,80.13
2017-12-30T08:16:47.969Z,33.50
2017-12-30T08:19:16.212Z,39.27
2017-12-30T08:21:44.504Z,27.33
2017-12-30T08:24:12.738Z,21.60
2017-12-30T08:26:41.372Z,31.07
2017-12-30T08:29:09.659Z,39.77
2017-12-30T08:31:37.888Z,50.90
2017-12-30T08:34:07.625Z,29.43
2017-12-30T08:36:36.683Z,20.70
2017-12-30T08:39:04.916Z,19.03
2017-12-30T08:41:33.152Z,58.23
2017-12-30T08:44:02.772Z,50.93
2017-12-30T08:46:31.287Z,34.77
2017-12-30T08:49:00.888Z,30.30
2017-12-30T08:51:29.458Z,18.87
2017-12-30T08:53:57.756Z,25.87
2017-12-30T08:56:26.013Z,22.13
2017-12-30T08:58:55.080Z,15.40
2017-12-30T09:01:24.096Z,57.17
2017-12-30T09:03:52.347Z,18.80
2017-12-30T09:06:20.669Z,27.03
2017-12-30T09:08:48.922Z,21.77
2017-12-30T09:11:17.152Z,27.80
2017-12-30T09:13:45.451Z,17.83
2017-12-30T09:16:13.734Z,10.97
2017-12-30T09:18:42.692Z,23.00
2017-12-30T09:21:10.962Z,43.50
2017-12-30T09:23:39.189Z,24.80
2017-12-30T09:26:07.420Z,27.50
2017-12-30T09:28:35.704Z,34.70
2017-12-30T09:31:05.448Z,58.90
2017-12-30T09:33:35.068Z,28.70
2017-12-30T09:36:03.600Z,15.43
2017-12-30T09:38:31.835Z,53.23
2017-12-30T09:41:00.112Z,17.47
2017-12-30T09:43:28.499Z,29.43
2017-12-30T09:45:56.771Z,14.87
2017-12-30T09:48:25.006Z,11.73
2017-12-30T09:50:54.783Z,15.97
2017-12-30T09:53:23.044Z,21.43
2017-12-30T09:55:51.272Z,68.87
2017-12-30T09:58:19.541Z,31.67
2017-12-30T10:00:49.127Z,40.57
2017-12-30T10:03:18.749Z,15.40
2017-12-30T10:05:47.051Z,13.67
2017-12-30T10:08:16.638Z,24.10
2017-12-30T10:10:45.165Z,15.87
2017-12-30T10:13:13.454Z,27.50
2017-12-30T10:15:41.691Z,15.87
2017-12-30T10:18:11.276Z,14.20
2017-12-30T10:20:39.435Z,14.67
2017-12-30T10:23:07.699Z,17.50
2017-12-30T10:25:36.715Z,12.90
2017-12-30T10:28:06.331Z,23.10
2017-12-30T10:30:34.476Z,11.67
2017-12-30T10:33:04.083Z,10.90
2017-12-30T10:35:32.996Z,14.07
2017-12-30T10:38:01.260Z,16.60
2017-12-30T10:40:30.859Z,18.13
2017-12-30T10:42:59.764Z,12.50
2017-12-30T10:45:28.771Z,14.13
2017-12-30T10:47:58.395Z,16.33
2017-12-30T10:50:26.956Z,16.03
2017-12-30T10:52:55.230Z,16.47
2017-12-30T10:55:23.468Z,21.20
2017-12-30T10:57:51.739Z,21.20
2017-12-30T11:00:19.996Z,20.67
2017-12-30T11:02:49.591Z,23.33
2017-12-30T11:05:17.880Z,26.43
2017-12-30T11:07:46.518Z,27.23
2017-12-30T11:10:14.760Z,33.93
2017-12-30T11:12:43.044Z,28.17
2017-12-30T11:15:12.443Z,35.03
2017-12-30T11:17:42.042Z,53.70
2017-12-30T11:20:11.560Z,35.60
2017-12-30T11:22:40.445Z,57.73
2017-12-30T11:25:09.445Z,38.87
2017-12-30T11:27:39.100Z,42.30
2017-12-30T11:30:08.782Z,39.20
2017-12-30T11:32:37.015Z,49.00
2017-12-30T11:35:05.293Z,59.83
2017-12-30T11:37:33.550Z,48.07
2017-12-30T11:40:03.176Z,51.47
2017-12-30T11:42:31.349Z,73.93
2017-12-30T11:44:59.621Z,58.47
2017-12-30T11:47:27.875Z,45.73
2017-12-30T11:49:56.172Z,44.10
2017-12-30T11:52:25.778Z,53.70
2017-12-30T11:54:54.311Z,51.37
2017-12-30T11:57:22.655Z,65.10
2017-12-30T11:59:50.851Z,63.27
2017-12-30T12:02:19.093Z,51.00
2017-12-30T12:04:47.369Z,56.50
2017-12-30T12:07:16.384Z,53.53
2017-12-30T12:09:44.801Z,56.30
2017-12-30T12:12:13.067Z,69.07
2017-12-30T12:14:42.820Z,46.00
2017-12-30T12:17:11.056Z,60.37
2017-12-30T12:19:39.334Z,74.47
2017-12-30T12:22:07.572Z,59.30
2017-12-30T12:24:35.846Z,55.93
2017-12-30T12:27:04.154Z,58.07
2017-12-30T12:29:32.406Z,76.03
2017-12-30T12:32:01.993Z,67.13
2017-12-30T12:34:30.162Z,82.63
2017-12-30T12:36:58.421Z,51.30
2017-12-30T12:39:28.029Z,58.33
2017-12-30T12:41:56.629Z,68.80
2017-12-30T12:44:24.870Z,74.33
2017-12-30T12:46:54.248Z,72.43
2017-12-30T12:49:22.528Z,67.70
2017-12-30T12:51:52.269Z,65.60
2017-12-30T12:54:20.505Z,58.90
2017-12-30T12:56:49.189Z,78.87
2017-12-30T12:59:17.437Z,58.40
2017-12-30T13:01:45.678Z,62.70
2017-12-30T13:04:15.142Z,67.23
2017-12-30T13:06:43.406Z,61.03
2017-12-30T13:09:11.640Z,62.80
2017-12-30T13:11:39.927Z,72.93
2017-12-30T13:14:08.181Z,74.67
2017-12-30T13:16:36.420Z,58.23
2017-12-30T13:19:04.692Z,70.50
2017-12-30T13:21:34.469Z,60.07
2017-12-30T13:24:02.726Z,63.50
2017-12-30T13:26:33.347Z,62.53
2017-12-30T13:29:01.294Z,55.13
2017-12-30T13:31:29.932Z,88.50
2017-12-30T13:33:59.749Z,77.37
2017-12-30T13:36:28.319Z,57.83
2017-12-30T13:38:56.539Z,52.10
2017-12-30T13:41:25.588Z,52.80
2017-12-30T13:43:54.645Z,65.40
2017-12-30T13:46:22.906Z,67.17
2017-12-30T13:48:51.190Z,64.90
2017-12-30T13:51:20.190Z,54.50
2017-12-30T13:53:49.599Z,54.43
2017-12-30T13:56:17.893Z,45.10
2017-12-30T13:58:46.125Z,66.27
2017-12-30T14:01:15.892Z,57.63
2017-12-30T14:03:44.337Z,57.53
2017-12-30T14:06:12.604Z,56.70
2017-12-30T14:08:40.840Z,57.87
2017-12-30T14:11:09.109Z,61.93
2017-12-30T14:13:38.116Z,47.83
2017-12-30T14:16:06.360Z,56.97
2017-12-30T14:18:34.641Z,51.10
2017-12-30T14:21:04.458Z,51.33
2017-12-30T14:23:32.691Z,50.27
2017-12-30T14:26:01.027Z,57.10
2017-12-30T14:28:29.351Z,44.40
2017-12-30T14:30:58.016Z,48.33
2017-12-30T14:33:27.909Z,46.03
2017-12-30T14:35:56.189Z,50.20
2017-12-30T14:38:25.244Z,52.33
2017-12-30T14:40:53.966Z,52.37
2017-12-30T14:43:22.235Z,56.33
2017-12-30T14:45:51.619Z,42.17
2017-12-30T14:48:21.483Z,42.00
2017-12-30T14:50:50.905Z,47.00
2017-12-30T14:53:20.507Z,43.93
2017-12-30T14:55:49.793Z,47.07
2017-12-30T14:58:18.028Z,48.10
2017-12-30T15:00:46.284Z,47.73
2017-12-30T15:03:14.981Z,51.87
2017-12-30T15:05:44.599Z,40.70
2017-12-30T15:08:14.068Z,34.07
2017-12-30T15:10:43.584Z,49.53
2017-12-30T15:13:12.856Z,45.10
2017-12-30T15:15:41.107Z,36.87
2017-12-30T15:18:10.775Z,37.40
2017-12-30T15:20:39.334Z,37.53
2017-12-30T15:23:07.564Z,40.27
2017-12-30T15:25:35.884Z,44.83
2017-12-30T15:28:05.468Z,43.33
2017-12-30T15:30:33.655Z,39.80
2017-12-30T15:33:02.713Z,40.70
2017-12-30T15:35:31.745Z,50.63
2017-12-30T15:38:01.422Z,36.83
2017-12-30T15:40:30.365Z,40.17
2017-12-30T15:42:58.673Z,45.33
2017-12-30T15:45:28.459Z,38.20
2017-12-30T15:47:56.783Z,38.07
2017-12-30T15:50:25.084Z,58.90
2017-12-30T15:52:53.323Z,37.37
2017-12-30T15:55:21.615Z,39.80
2017-12-30T15:57:49.831Z,42.43
2017-12-30T16:00:19.450Z,36.03
2017-12-30T16:02:49.006Z,39.63
2017-12-30T16:05:17.561Z,45.13
2017-12-30T16:07:45.785Z,41.43
2017-12-30T16:10:14.115Z,44.83
2017-12-30T16:12:43.697Z,40.33
2017-12-30T16:15:12.601Z,42.97
2017-12-30T16:17:41.791Z,41.57
2017-12-30T16:20:11.556Z,38.97
2017-12-30T16:22:39.814Z,32.63
2017-12-30T16:25:09.458Z,34.73
2017-12-30T16:27:38.696Z,46.80
2017-12-30T16:30:06.958Z,31.60
2017-12-30T16:32:35.260Z,36.20
2017-12-30T16:35:03.569Z,34.40
2017-12-30T16:37:33.360Z,34.63
2017-12-30T16:40:01.665Z,34.00
2017-12-30T16:42:29.933Z,32.97
2017-12-30T16:44:59.347Z,26.63
2017-12-30T16:47:27.649Z,38.03
2017-12-30T16:49:57.297Z,45.00
2017-12-30T16:52:26.239Z,38.97
2017-12-30T16:54:55.750Z,38.80
2017-12-30T16:57:24.409Z,39.67
2017-12-30T16:59:52.630Z,37.43
2017-12-30T17:02:21.668Z,40.33
2017-12-30T17:04:51.304Z,45.03
2017-12-30T17:07:20.792Z,38.03
2017-12-30T17:09:50.202Z,39.17
2017-12-30T17:12:18.475Z,41.27
2017-12-30T17:14:48.238Z,40.73
2017-12-30T17:17:16.536Z,34.93
2017-12-30T17:19:44.780Z,30.37
2017-12-30T17:22:14.364Z,38.90
2017-12-30T17:24:42.923Z,44.57
2017-12-30T17:27:11.924Z,36.97
2017-12-30T17:29:41.744Z,34.50
2017-12-30T17:32:11.512Z,44.97
2017-12-30T17:34:40.187Z,39.37
2017-12-30T17:37:09.826Z,31.90
2017-12-30T17:39:38.413Z,44.53
2017-12-30T17:42:07.416Z,33.13
2017-12-30T17:44:37.047Z,38.53
2017-12-30T17:47:06.527Z,30.37
2017-12-30T17:49:35.622Z,33.13
2017-12-30T17:52:03.960Z,33.83
2017-12-30T17:54:33.622Z,37.53
2017-12-30T17:57:02.572Z,35.03
2017-12-30T17:59:31.291Z,25.00
2017-12-30T18:02:00.929Z,44.73
2017-12-30T18:04:30.440Z,27.33
2017-12-30T18:06:58.998Z,41.10
2017-12-30T18:09:27.701Z,39.33
2017-12-30T18:11:57.959Z,41.70
2017-12-30T18:14:28.510Z,28.60
2017-12-30T18:16:57.186Z,36.53
2017-12-30T18:19:26.377Z,42.40
2017-12-30T18:21:55.417Z,29.50
2017-12-30T18:24:25.111Z,31.57
2017-12-30T18:26:53.692Z,31.90
2017-12-30T18:29:21.999Z,31.70
2017-12-30T18:31:51.729Z,26.27
2017-12-30T18:34:20.821Z,29.67
2017-12-30T18:36:49.882Z,33.17
2017-12-30T18:39:18.915Z,32.87
2017-12-30T18:41:48.575Z,31.57
2017-12-30T18:44:16.669Z,29.33
2017-12-30T18:46:44.947Z,33.80
2017-12-30T18:49:14.580Z,33.40
2017-12-30T18:51:43.124Z,28.90
2017-12-30T18:54:11.387Z,33.73
2017-12-30T18:56:39.724Z,26.47
2017-12-30T18:59:07.983Z,40.20
2017-12-30T19:01:37.034Z,26.30
2017-12-30T19:04:06.485Z,32.10
2017-12-30T19:06:35.160Z,33.57
2017-12-30T19:09:03.443Z,30.87
2017-12-30T19:11:33.083Z,33.30
2017-12-30T19:14:01.654Z,29.77
2017-12-30T19:16:29.980Z,31.40
2017-12-30T19:18:58.556Z,30.20
2017-12-30T19:21:26.845Z,23.33
2017-12-30T19:23:55.117Z,31.87
2017-12-30T19:26:24.790Z,28.10
2017-12-30T19:28:52.884Z,32.00
2017-12-30T19:31:21.206Z,25.70
2017-12-30T19:33:51.054Z,36.57
2017-12-30T19:36:19.329Z,30.43
2017-12-30T19:38:48.952Z,25.13
2017-12-30T19:41:17.923Z,29.63
2017-12-30T19:43:46.992Z,26.13
2017-12-30T19:46:15.288Z,33.73
2017-12-30T19:48:45.117Z,26.20
2017-12-30T19:51:13.518Z,24.83
2017-12-30T19:53:41.799Z,39.27
2017-12-30T19:56:11.478Z,28.23
2017-12-30T19:58:39.642Z,29.20
2017-12-30T20:01:07.908Z,33.73
2017-12-30T20:03:36.228Z,35.83
2017-12-30T20:06:04.919Z,26.97
2017-12-30T20:08:34.335Z,36.67
2017-12-30T20:11:02.696Z,25.00
2017-12-30T20:13:32.330Z,27.60
2017-12-30T20:16:00.884Z,28.60
2017-12-30T20:18:29.208Z,26.90
2017-12-30T20:20:58.856Z,34.07
2017-12-30T20:23:27.783Z,33.63
2017-12-30T20:25:56.922Z,28.53
2017-12-30T20:28:26.593Z,24.40
2017-12-30T20:30:57.099Z,30.43
2017-12-30T20:33:26.747Z,41.37
2017-12-30T20:35:55.298Z,37.13
2017-12-30T20:38:25.020Z,31.50
2017-12-30T20:40:53.556Z,29.80
2017-12-30T20:43:21.835Z,37.03
2017-12-30T20:45:50.183Z,28.00
2017-12-30T20:48:19.804Z,30.27
2017-12-30T20:50:48.343Z,26.77
2017-12-30T20:53:17.819Z,35.53
2017-12-30T20:55:46.850Z,27.50
2017-12-30T20:58:15.151Z,32.10
2017-12-30T21:00:43.476Z,27.83
2017-12-30T21:03:13.095Z,30.27
2017-12-30T21:05:42.615Z,30.97
2017-12-30T21:08:10.838Z,27.47
2017-12-30T21:10:39.112Z,37.87
2017-12-30T21:13:07.392Z,36.70
2017-12-30T21:15:37.242Z,25.27
2017-12-30T21:18:05.511Z,35.87
2017-12-30T21:20:35.315Z,31.77
2017-12-30T21:23:03.653Z,33.57
2017-12-30T21:25:33.440Z,36.57
2017-12-30T21:28:03.130Z,26.53
2017-12-30T21:30:32.084Z,44.43
2017-12-30T21:33:00.379Z,28.03
2017-12-30T21:35:30.022Z,26.87
2017-12-30T21:37:59.575Z,42.30
2017-12-30T21:40:28.947Z,28.97
2017-12-30T21:42:57.292Z,33.37
2017-12-30T21:45:25.667Z,28.47
2017-12-30T21:47:55.305Z,27.67
2017-12-30T21:50:25.483Z,40.13
2017-12-30T21:52:54.791Z,29.77
2017-12-30T21:55:23.059Z,27.03
2017-12-30T21:57:52.895Z,30.23
2017-12-30T22:00:22.523Z,26.10
2017-12-30T22:02:51.063Z,42.20
2017-12-30T22:05:19.374Z,21.60
2017-12-30T22:07:48.983Z,36.17
2017-12-30T22:10:17.532Z,25.47
2017-12-30T22:12:46.620Z,32.57
2017-12-30T22:15:16.420Z,32.50
2017-12-30T22:17:46.232Z,31.63
2017-12-30T22:20:14.938Z,26.00
2017-12-30T22:22:44.721Z,38.77
2017-12-30T22:25:14.742Z,27.10
2017-12-30T22:27:44.274Z,29.03
2017-12-30T22:30:15.323Z,32.23
2017-12-30T22:32:44.636Z,35.33
2017-12-30T22:35:12.894Z,24.50
2017-12-30T22:37:41.218Z,24.10
2017-12-30T22:40:09.484Z,35.17
2017-12-30T22:42:38.907Z,35.17
2017-12-30T22:45:07.231Z,38.63
2017-12-30T22:47:35.500Z,32.73
2017-12-30T22:50:03.787Z,28.63
2017-12-30T22:53:23.851Z,39.10
2017-12-30T22:55:52.314Z,30.03
2017-12-30T22:58:20.594Z,35.43
2017-12-30T23:00:54.508Z,30.90
2017-12-30T23:03:22.792Z,45.47
2017-12-30T23:05:51.059Z,31.40
2017-12-30T23:08:20.128Z,35.10
2017-12-30T23:10:48.405Z,35.67
2017-12-30T23:13:16.681Z,31.80
2017-12-30T23:15:46.492Z,27.23
2017-12-30T23:18:14.772Z,31.37
2017-12-30T23:20:43.064Z,32.33
2017-12-30T23:23:11.369Z,39.77
2017-12-30T23:25:39.639Z,32.50
2017-12-30T23:28:08.299Z,25.80
2017-12-30T23:30:37.020Z,41.23
2017-12-30T23:33:05.301Z,34.23
2017-12-30T23:35:34.344Z,31.83
2017-12-30T23:38:04.179Z,28.23
2017-12-30T23:40:32.859Z,24.70
2017-12-30T23:43:02.264Z,24.47
2017-12-30T23:45:30.581Z,23.83
2017-12-30T23:47:58.879Z,39.37
2017-12-30T23:50:27.175Z,24.20
2017-12-30T23:52:56.268Z,34.97
2017-12-30T23:55:25.899Z,36.43
2017-12-30T23:57:54.737Z,28.53
